Nearby METAR Reports

 

KPMD - Palmdale, California, USA
Distance from station: NNE 12mi, 19km
Updated: Wed, 19-Jun-2019 3:53pm PDT
Clear
Clear
 Wind from SW
Wind: SW 24 mph , 39 km/h, Gust: 31 mph , 50 km/h
Temperature: 93°F , 34°C
Dew Point: 52°F , 11°C
Humidity: 24%
Barometer: 29.89 inHg , 1012.2 hPa
Clouds: Clear
Visibility: 10 miles , 16 km
2019/06/19 22:53 KPMD 192253Z 22021G27KT 10SM CLR 34/11 A2989 RMK AO2 PK WND 21027/2243 SLP091 T03440111
KWJF - Lancaster/Fox, California, USA
Distance from station: N 17mi, 27km
Updated: Wed, 19-Jun-2019 3:56pm PDT
Clear
Clear
 Wind from SW
Wind: SW 26 mph , 43 km/h, Gust: 33 mph , 54 km/h
Temperature: 93°F , 34°C
Dew Point: 55°F , 13°C
Humidity: 28%
Barometer: 29.88 inHg , 1011.9 hPa
Clouds: Clear
Visibility: 10 miles , 16 km
2019/06/19 22:56 KWJF 192256Z 23023G29KT 10SM CLR 34/13 A2988 RMK AO2 PK WND 25030/2234 SLP093 T03390128
 
KMWS - Mount Wilson, California, USA
Distance from station: SSE 18mi, 30km
Updated: Wed, 13-May-2015 6:45am PDT
NOT Current

 Wind from S
Wind: S 3 mph , 6 km/h, Gust: 5 mph , 7 km/h
Temperature: 43°F , 6°C
Dew Point: -0°F , -18°C
Humidity: 16%
2015/05/13 13:45 KMWS 131345Z 18003G04KT 06/M18 RMK SNOW DEPTH 1.00
KWHP - La / Whiteman, California, USA
Distance from station: SW 21mi, 34km
Updated: Wed, 19-Jun-2019 3:55pm PDT
Clear
Clear
 Wind from calm
Wind: Calm
Temperature: 82°F , 28°C
Dew Point: 52°F , 11°C
Humidity: 35%
Barometer: 29.95 inHg , 1014.2 hPa
Clouds: Clear
Visibility: 10 miles , 16 km
2019/06/19 22:55 KWHP 192255Z 00000KT 10SM SKC 28/11 A2995
 
KBUR - Burbank, California, USA
Distance from station: SSW 22mi, 35km
Updated: Wed, 19-Jun-2019 3:53pm PDT
Clear
Clear
 Wind from SSE
Wind: SSE 9 mph , 15 km/h
Temperature: 81°F , 27°C
Heat Index: 81°F , 27°C
Dew Point: 55°F , 13°C
Humidity: 42%
Barometer: 29.92 inHg , 1013.2 hPa
Clouds: Clear
Visibility: 10 miles , 16 km
2019/06/19 22:53 KBUR 192253Z 16008KT 10SM CLR 27/13 A2992 RMK AO2 SLP120 T02720128 $
KVNY - Van Nuys, California, USA
Distance from station: SW 25mi, 40km
Updated: Wed, 19-Jun-2019 3:51pm PDT
Clear
Clear
 Wind from S
Wind: S 9 mph , 15 km/h
Temperature: 84°F , 29°C
Dew Point: 52°F , 11°C
Humidity: 33%
Barometer: 29.92 inHg , 1013.2 hPa
Clouds: Clear
Visibility: 10 miles , 16 km
2019/06/19 22:51 KVNY 192251Z 17008KT 10SM CLR 29/11 A2992 RMK AO2 SLP122 T02890106
 
KEDW - Edwards Afb, California, USA
Distance from station: NNE 33mi, 53km
Updated: Wed, 19-Jun-2019 4:08pm PDT
Partly cloudy
Partly cloudy
 Wind from SW
Wind: SW 28 mph , 44 km/h, Gust: 35 mph , 56 km/h
Temperature: 100°F , 38°C
Dew Point: 50°F , 10°C
Humidity: 18%
Barometer: 29.83 inHg , 1010.2 hPa
Clouds: Partly cloudy
Visibility: 50 miles , 80 km
Cloud details: Partly cloudy 10000 ft
2019/06/19 23:08 KEDW 192308Z 22024G30KT 50SM SCT100 38/10 A2983 RMK AO2A SLP074
KSMO - Santa Monica, California, USA
Distance from station: SSW 35mi, 57km
Updated: Wed, 19-Jun-2019 3:51pm PDT
Clear
Clear
 Wind from WSW
Wind: WSW 10 mph , 17 km/h
Temperature: 70°F , 21°C
Dew Point: 59°F , 15°C
Humidity: 69%
Barometer: 29.95 inHg , 1014.2 hPa
Clouds: Clear
Visibility: 10 miles , 16 km
2019/06/19 22:51 KSMO 192251Z AUTO 25009KT 10SM CLR 21/15 A2995 RMK AO2 SLP140 T02060150 $
 
KLAX - Los Angeles, California, USA
Distance from station: SSW 39mi, 63km
Updated: Wed, 19-Jun-2019 3:53pm PDT
Few Clouds
Few Clouds
 Wind from W
Wind: W 17 mph , 28 km/h
Temperature: 72°F , 22°C
Dew Point: 59°F , 15°C
Humidity: 65%
Barometer: 29.95 inHg , 1014.2 hPa
Clouds: Few Clouds
Visibility: 10 miles , 16 km
Cloud details: Few Clouds 1500 ft
Few Clouds 8000 ft
2019/06/19 22:53 KLAX 192253Z 27015KT 10SM FEW015 FEW080 22/15 A2995 RMK AO2 SLP139 T02170150
KMHV - Mojave, California, USA
Distance from station: N 41mi, 66km
Updated: Wed, 19-Jun-2019 4:20pm PDT
Clear
Clear
 Wind from WNW
Wind: WNW 20 mph , 31 km/h, Gust: 29 mph , 46 km/h
Temperature: 97°F , 36°C
Dew Point: 55°F , 13°C
Humidity: 25%
Barometer: 29.88 inHg , 1011.9 hPa
Clouds: Clear
Visibility: 10 miles , 16 km
2019/06/19 23:20 KMHV 192320Z AUTO 30017G25KT 10SM CLR 36/13 A2988 RMK A01
 
KFUL - Fullerton, California, USA
Distance from station: SSE 44mi, 70km
Updated: Wed, 19-Jun-2019 3:53pm PDT
Clear
Clear
 Wind from S
Wind: S 9 mph , 15 km/h
Temperature: 79°F , 26°C
Dew Point: 57°F , 14°C
Humidity: 48%
Barometer: 29.92 inHg , 1013.2 hPa
Clouds: Clear
Visibility: 10 miles , 16 km
2019/06/19 22:53 KFUL 192253Z 19008KT 10SM CLR 26/14 A2992 RMK AO2 SLP129 T02610144
KONT - Ontario, California, USA
Distance from station: SE 45mi, 72km
Updated: Wed, 19-Jun-2019 3:53pm PDT
Few Clouds
Few Clouds
 Wind from W
Wind: W 12 mph , 19 km/h
Temperature: 90°F , 32°C
Dew Point: 55°F , 13°C
Humidity: 31%
Barometer: 29.92 inHg , 1013.2 hPa
Clouds: Few Clouds
Visibility: 10 miles , 16 km
Cloud details: Few Clouds 4000 ft
Few Clouds 8000 ft
2019/06/19 22:53 KONT 192253Z 27010KT 10SM FEW040 FEW080 32/13 A2992 RMK AO2 SLP115 T03220128
 
KLGB - Long Beach, California, USA
Distance from station: S 46mi, 74km
Updated: Wed, 19-Jun-2019 3:53pm PDT
Clear
Clear
 Wind from SSW
Wind: SSW 8 mph , 13 km/h
Temperature: 77°F , 25°C
Dew Point: 57°F , 14°C
Humidity: 51%
Barometer: 29.93 inHg , 1013.5 hPa
Clouds: Clear
Visibility: 10 miles , 16 km
2019/06/19 22:53 KLGB 192253Z 21007KT 10SM CLR 25/14 A2993 RMK AO2 SLP134 T02500139
KVCV - Victorville, California, USA
Distance from station: E 46mi, 74km
Updated: Wed, 19-Jun-2019 3:56pm PDT
Clear
Clear
 Wind from S
Wind: S 22 mph , 35 km/h
Barometer: 29.89 inHg , 1012.2 hPa
Clouds: Clear
Visibility: 10 miles , 16 km
2019/06/19 22:56 KVCV 192256Z 17019KT 10SM SKC A2989
 
KTSP - Tehachapi, California, USA
Distance from station: NNW 48mi, 77km
Updated: Wed, 19-Jun-2019 4:15pm PDT
Clear
Clear
 Wind from NW
Wind: NW 16 mph , 26 km/h, Gust: 21 mph , 33 km/h
Temperature: 84°F , 29°C
Heat Index: 83°F , 28°C
Dew Point: 57°F , 14°C
Humidity: 40%
Barometer: 30.03 inHg , 1016.9 hPa
Clouds: Clear
Visibility: 10 miles , 16 km
2019/06/19 23:15 KTSP 192315Z AUTO 32014G18KT 10SM CLR 29/14 A3003 RMK AO2